Time;durP1;ratioP1;P1;durP2;ratioP2;P2;SDS_P1;SDS_P2;PMS_P1;PMS_P2;Temp;Humidity;BMP_temperature;BMP_pressure;BME280_temperature;BME280_humidity;BME280_pressure;Samples;Min_cycle;Max_cycle;Signal;HPM_P1;HPM_P2
2023/06/28 00:02:22;;;;;;;2.23;1.17;;;17.40;82.30;;;;;;5052220;28;20511;-72
2023/06/28 00:04:48;;;;;;;4.40;1.50;;;17.40;82.70;;;;;;5052567;28;20185;-72
2023/06/28 00:07:16;;;;;;;2.40;1.50;;;17.40;83.20;;;;;;5052547;28;20463;-71
2023/06/28 00:09:41;;;;;;;2.70;1.63;;;17.40;83.90;;;;;;5063952;28;20424;-71
2023/06/28 00:12:07;;;;;;;2.17;1.00;;;17.40;81.70;;;;;;5056942;28;20431;-72
2023/06/28 00:14:33;;;;;;;4.80;1.67;;;17.40;81.80;;;;;;5052359;28;20186;-72
2023/06/28 00:16:59;;;;;;;3.83;1.50;;;17.40;80.40;;;;;;5052003;28;20182;-72
2023/06/28 00:19:28;;;;;;;3.73;1.23;;;17.40;80.00;;;;;;5063415;28;20188;-72
2023/06/28 00:21:55;;;;;;;3.10;1.30;;;17.40;79.70;;;;;;5054212;28;20493;-71
2023/06/28 00:24:21;;;;;;;1.90;1.00;;;17.40;80.50;;;;;;5052222;28;20524;-72
2023/06/28 00:26:46;;;;;;;5.53;1.17;;;17.40;79.70;;;;;;5051691;28;21020;-71
2023/06/28 00:29:12;;;;;;;2.47;1.30;;;17.40;79.80;;;;;;5052040;28;20192;-71
2023/06/28 00:31:37;;;;;;;2.37;1.40;;;17.40;80.00;;;;;;5059638;28;20213;-72
2023/06/28 00:34:03;;;;;;;2.43;1.10;;;17.40;79.50;;;;;;5053286;28;20638;-71
2023/06/28 00:36:29;;;;;;;2.73;1.00;;;17.40;80.00;;;;;;5051542;28;20191;-72
2023/06/28 00:38:54;;;;;;;2.40;0.90;;;17.40;78.80;;;;;;5052031;28;20273;-71
2023/06/28 00:41:20;;;;;;;2.37;1.00;;;17.40;79.70;;;;;;5047996;28;20190;-72
2023/06/28 00:43:46;;;;;;;2.43;1.17;;;17.40;79.30;;;;;;5047728;28;20247;-72
2023/06/28 00:46:11;;;;;;;2.90;1.27;;;17.40;79.90;;;;;;5050725;28;20227;-72
2023/06/28 00:48:37;;;;;;;2.40;1.20;;;17.50;79.20;;;;;;5051650;28;20609;-72
2023/06/28 00:51:03;;;;;;;4.60;1.20;;;17.50;79.40;;;;;;5050670;28;20225;-71
2023/06/28 00:53:30;;;;;;;3.70;1.50;;;17.40;78.50;;;;;;5051667;28;20186;-71
2023/06/28 00:55:57;;;;;;;2.63;1.03;;;17.40;79.10;;;;;;5051436;28;20499;-72
2023/06/28 00:58:25;;;;;;;3.63;1.77;;;17.40;80.00;;;;;;5051482;28;20869;-72
2023/06/28 01:00:51;;;;;;;6.50;1.47;;;17.40;79.70;;;;;;5050252;28;20562;-71
2023/06/28 01:03:18;;;;;;;1.97;0.80;;;17.40;79.90;;;;;;5050916;28;20909;-72
2023/06/28 01:05:49;;;;;;;1.87;1.17;;;17.40;79.60;;;;;;5051638;28;20193;-72
2023/06/28 01:08:17;;;;;;;2.43;1.10;;;17.40;79.20;;;;;;5059269;28;20463;-72
2023/06/28 01:10:43;;;;;;;1.37;0.70;;;17.40;80.30;;;;;;5061413;28;20420;-72
2023/06/28 01:13:09;;;;;;;4.77;1.70;;;17.40;79.40;;;;;;5050887;28;20519;-72
2023/06/28 01:15:35;;;;;;;2.30;1.00;;;17.40;79.40;;;;;;5033445;28;21095;-71
2023/06/28 01:18:01;;;;;;;2.77;1.43;;;17.30;80.60;;;;;;5058367;28;20433;-71
2023/06/28 01:20:30;;;;;;;4.10;1.17;;;17.40;81.10;;;;;;5056464;28;20190;-71
2023/06/28 01:22:56;;;;;;;3.20;1.20;;;17.30;81.80;;;;;;5051750;28;20420;-71
2023/06/28 01:25:22;;;;;;;4.60;1.27;;;17.30;82.00;;;;;;5053083;28;20424;-71
2023/06/28 01:27:50;;;;;;;2.70;1.23;;;17.30;80.90;;;;;;5052859;28;20475;-71
2023/06/28 01:30:17;;;;;;;2.43;1.23;;;17.30;81.20;;;;;;5054177;28;20499;-71
2023/06/28 01:32:43;;;;;;;2.37;1.07;;;17.30;81.10;;;;;;5059649;28;20419;-72
2023/06/28 01:35:14;;;;;;;2.43;1.10;;;17.30;81.30;;;;;;5051877;28;20421;-72
2023/06/28 01:37:40;;;;;;;2.10;0.93;;;17.30;81.40;;;;;;5050652;28;20519;-72
2023/06/28 01:40:09;;;;;;;2.23;1.00;;;17.30;81.20;;;;;;5051006;28;20523;-72
2023/06/28 01:42:36;;;;;;;3.50;1.53;;;17.20;81.90;;;;;;5048827;28;20446;-72
2023/06/28 01:45:02;;;;;;;2.50;1.10;;;17.20;83.00;;;;;;5050354;28;20436;-72
2023/06/28 01:47:27;;;;;;;4.57;1.00;;;17.10;82.90;;;;;;5050827;28;20468;-72
2023/06/28 01:49:53;;;;;;;2.37;1.07;;;17.10;82.90;;;;;;5050606;28;20427;-72
2023/06/28 01:52:19;;;;;;;4.30;1.40;;;17.10;83.10;;;;;;5049970;28;20243;-72
2023/06/28 01:54:44;;;;;;;1.97;1.03;;;17.10;82.90;;;;;;5050622;28;20190;-71
2023/06/28 01:57:11;;;;;;;3.00;1.07;;;17.10;82.40;;;;;;5050034;28;20189;-72
2023/06/28 01:59:37;;;;;;;7.47;1.30;;;17.20;82.00;;;;;;5050340;28;20269;-72
2023/06/28 02:02:03;;;;;;;4.60;1.20;;;17.20;82.10;;;;;;5050045;28;20562;-71
2023/06/28 02:04:29;;;;;;;3.10;1.47;;;17.20;81.20;;;;;;5050253;28;20195;-71
2023/06/28 02:06:56;;;;;;;3.23;1.60;;;17.20;82.30;;;;;;5050289;28;20494;-71
2023/06/28 02:09:22;;;;;;;7.83;1.40;;;17.20;82.90;;;;;;5060690;28;20257;-71
2023/06/28 02:11:48;;;;;;;3.83;1.30;;;17.20;83.70;;;;;;5058035;28;20838;-72
2023/06/28 02:14:14;;;;;;;4.43;1.93;;;17.10;84.90;;;;;;5050093;28;20185;-72
2023/06/28 02:16:41;;;;;;;5.73;0.90;;;17.00;84.00;;;;;;5050637;28;20181;-72
2023/06/28 02:19:12;;;;;;;4.80;1.30;;;17.00;84.40;;;;;;5061813;28;20261;-72
2023/06/28 02:21:40;;;;;;;5.37;2.17;;;16.90;85.20;;;;;;5053246;28;20416;-72
2023/06/28 02:24:07;;;;;;;3.17;1.23;;;16.80;86.20;;;;;;5050134;28;20443;-72
2023/06/28 02:26:34;;;;;;;1.83;1.00;;;16.80;84.50;;;;;;5050546;28;20428;-72
2023/06/28 02:29:00;;;;;;;3.10;1.17;;;16.80;85.40;;;;;;5049904;28;20443;-71
2023/06/28 02:31:25;;;;;;;3.23;1.50;;;16.80;86.40;;;;;;5057992;28;20427;-71
2023/06/28 02:33:51;;;;;;;8.00;1.90;;;16.70;86.50;;;;;;5033732;28;20178;-72
2023/06/28 02:36:17;;;;;;;4.20;1.33;;;16.70;86.20;;;;;;5049845;28;20190;-72
2023/06/28 02:38:43;;;;;;;1.60;1.00;;;16.70;86.60;;;;;;5050183;28;20186;-72
2023/06/28 02:41:10;;;;;;;2.57;1.03;;;16.70;86.10;;;;;;5049972;28;20557;-72
2023/06/28 02:43:35;;;;;;;3.00;0.97;;;16.70;86.30;;;;;;5048919;28;20265;-72
2023/06/28 02:46:01;;;;;;;2.80;1.33;;;16.70;86.30;;;;;;5050146;28;20539;-72
2023/06/28 02:48:26;;;;;;;5.63;1.13;;;16.70;86.80;;;;;;5049980;28;20217;-72
2023/06/28 02:50:52;;;;;;;1.70;0.90;;;16.70;86.20;;;;;;5049632;28;20181;-72
2023/06/28 02:53:17;;;;;;;2.83;1.20;;;16.60;86.30;;;;;;5049605;28;20501;-72
2023/06/28 02:55:43;;;;;;;2.90;1.00;;;16.60;86.50;;;;;;5050212;28;20185;-72
2023/06/28 02:58:09;;;;;;;2.60;1.30;;;16.60;86.10;;;;;;5036698;28;20181;-72
2023/06/28 03:00:37;;;;;;;3.70;1.53;;;16.60;86.30;;;;;;5049678;28;20185;-72
2023/06/28 03:03:03;;;;;;;3.17;1.20;;;16.70;86.80;;;;;;5036620;28;20186;-71
2023/06/28 03:05:29;;;;;;;2.63;1.00;;;16.70;86.50;;;;;;5050195;28;20431;-72
2023/06/28 03:07:55;;;;;;;5.43;1.00;;;16.70;86.30;;;;;;5056191;28;20467;-72
2023/06/28 03:10:20;;;;;;;2.37;1.10;;;16.70;86.30;;;;;;5064957;28;20181;-72
2023/06/28 03:12:46;;;;;;;2.50;1.30;;;16.60;85.90;;;;;;5053444;28;20189;-72
2023/06/28 03:15:12;;;;;;;2.80;0.93;;;16.60;86.10;;;;;;5053417;28;20192;-71
2023/06/28 03:17:37;;;;;;;4.43;1.27;;;16.60;86.50;;;;;;5057674;28;20219;-72
2023/06/28 03:20:04;;;;;;;6.00;1.67;;;16.60;86.60;;;;;;5062729;28;20184;-72
2023/06/28 03:22:29;;;;;;;2.57;1.27;;;16.60;86.20;;;;;;5052588;28;20186;-72
2023/06/28 03:24:55;;;;;;;2.33;1.30;;;16.60;87.10;;;;;;5053395;28;20819;-72
2023/06/28 03:27:20;;;;;;;2.40;0.93;;;16.50;87.10;;;;;;5052812;28;20208;-72
2023/06/28 03:29:46;;;;;;;7.20;1.50;;;16.50;88.00;;;;;;5053002;28;20231;-72
2023/06/28 03:32:11;;;;;;;4.80;1.10;;;16.40;88.50;;;;;;5061443;28;20260;-72
2023/06/28 03:34:37;;;;;;;3.40;1.63;;;16.40;88.50;;;;;;5053903;28;20597;-72
2023/06/28 03:37:03;;;;;;;1.93;0.87;;;16.30;88.00;;;;;;5034547;28;20244;-72
2023/06/28 03:39:28;;;;;;;6.10;1.50;;;16.20;88.00;;;;;;5053259;28;20190;-71
2023/06/28 03:41:54;;;;;;;4.07;1.43;;;16.20;88.70;;;;;;5052543;28;20261;-72
2023/06/28 03:44:20;;;;;;;3.13;1.60;;;16.20;89.70;;;;;;5051882;28;20657;-72
2023/06/28 03:46:45;;;;;;;5.03;1.77;;;16.20;89.90;;;;;;5052566;28;20265;-72
2023/06/28 03:49:11;;;;;;;2.80;1.33;;;16.10;90.00;;;;;;5052906;28;20184;-72
2023/06/28 03:51:37;;;;;;;2.10;1.10;;;16.10;90.00;;;;;;5052330;28;20189;-73
2023/06/28 03:54:03;;;;;;;3.37;1.87;;;16.10;90.20;;;;;;5053301;28;20189;-73
2023/06/28 03:56:29;;;;;;;3.50;1.53;;;16.10;90.30;;;;;;5052947;28;20446;-73
2023/06/28 03:58:54;;;;;;;2.63;1.60;;;16.10;90.40;;;;;;5052978;28;20420;-73
2023/06/28 04:01:20;;;;;;;4.13;1.37;;;16.00;90.40;;;;;;5051634;28;20256;-73
2023/06/28 04:03:45;;;;;;;3.87;1.90;;;16.00;90.50;;;;;;5052623;28;20186;-73
2023/06/28 04:06:11;;;;;;;3.43;1.63;;;16.00;91.00;;;;;;5051984;28;20188;-73
2023/06/28 04:08:37;;;;;;;3.63;1.60;;;16.00;90.70;;;;;;5061128;28;20209;-73
2023/06/28 04:11:02;;;;;;;2.63;1.63;;;16.00;90.70;;;;;;5061979;28;20182;-73
2023/06/28 04:13:28;;;;;;;5.00;1.80;;;15.90;90.60;;;;;;5052524;28;20178;-73
2023/06/28 04:15:55;;;;;;;2.70;0.90;;;15.90;90.50;;;;;;5051951;28;20229;-73
2023/06/28 04:18:20;;;;;;;2.40;1.33;;;15.90;90.50;;;;;;5062364;28;20481;-73
2023/06/28 04:20:46;;;;;;;3.20;1.27;;;15.90;90.60;;;;;;5055637;28;20635;-73
2023/06/28 04:23:12;;;;;;;2.13;1.20;;;16.00;91.00;;;;;;5044400;28;20186;-73
2023/06/28 04:25:37;;;;;;;6.53;2.17;;;16.00;91.20;;;;;;5052328;28;20243;-73
2023/06/28 04:28:04;;;;;;;3.67;1.30;;;16.00;91.40;;;;;;5049346;28;20215;-73
2023/06/28 04:30:31;;;;;;;2.20;1.50;;;16.00;91.40;;;;;;5051460;28;20182;-70
2023/06/28 04:32:57;;;;;;;3.33;0.90;;;16.10;91.40;;;;;;5051104;28;20428;-70
2023/06/28 04:35:23;;;;;;;2.33;1.37;;;16.10;91.10;;;;;;5051817;28;20850;-70
2023/06/28 04:37:50;;;;;;;6.50;1.87;;;16.20;91.10;;;;;;5051659;28;20186;-70
2023/06/28 04:40:16;;;;;;;5.83;1.50;;;16.20;90.80;;;;;;5052338;28;20212;-70
2023/06/28 04:42:42;;;;;;;3.17;1.30;;;16.30;90.70;;;;;;5050430;28;20459;-70
2023/06/28 04:45:09;;;;;;;4.80;1.77;;;16.30;90.60;;;;;;5052065;28;20475;-72
2023/06/28 04:47:35;;;;;;;5.10;0.93;;;16.40;90.20;;;;;;5051632;28;20201;-72
2023/06/28 04:50:03;;;;;;;3.50;2.00;;;16.50;90.50;;;;;;5062692;28;20434;-72
2023/06/28 04:52:28;;;;;;;3.80;1.40;;;16.50;90.50;;;;;;5050915;28;20425;-72
2023/06/28 04:54:54;;;;;;;3.77;1.50;;;16.60;90.20;;;;;;5051818;28;20413;-72
2023/06/28 04:57:20;;;;;;;2.20;1.20;;;16.70;90.20;;;;;;5051634;28;20270;-72
2023/06/28 04:59:46;;;;;;;2.03;1.23;;;16.70;89.40;;;;;;5051623;28;20185;-73
2023/06/28 05:02:12;;;;;;;10.03;1.50;;;16.80;90.10;;;;;;5050927;28;20784;-73
2023/06/28 05:04:37;;;;;;;8.97;1.70;;;16.90;90.30;;;;;;5051490;28;20189;-72
2023/06/28 05:07:05;;;;;;;2.70;1.50;;;16.80;90.10;;;;;;5050996;28;20220;-72
2023/06/28 05:09:32;;;;;;;2.83;1.40;;;16.90;89.80;;;;;;5063044;28;20170;-73
2023/06/28 05:11:58;;;;;;;3.90;1.60;;;16.90;90.00;;;;;;5057667;28;20420;-73
2023/06/28 05:14:25;;;;;;;11.83;1.77;;;17.10;89.50;;;;;;5046454;28;20446;-72
2023/06/28 05:16:53;;;;;;;12.73;1.60;;;17.00;88.60;;;;;;5051029;28;20416;-72
2023/06/28 05:19:19;;;;;;;4.97;1.60;;;17.00;88.50;;;;;;5062145;28;20428;-72
2023/06/28 05:21:45;;;;;;;3.10;1.23;;;17.10;88.60;;;;;;5053465;28;20423;-72
2023/06/28 05:24:10;;;;;;;3.80;1.33;;;17.10;88.40;;;;;;5051446;28;20491;-72
2023/06/28 05:26:36;;;;;;;7.33;1.07;;;17.10;86.60;;;;;;5051056;28;20276;-73
2023/06/28 05:29:02;;;;;;;7.87;1.10;;;17.20;86.30;;;;;;5038199;28;20212;-72
2023/06/28 05:31:27;;;;;;;8.90;1.63;;;17.20;86.00;;;;;;5040358;28;20929;-72
2023/06/28 05:33:53;;;;;;;6.60;1.60;;;17.30;86.40;;;;;;5052055;28;20186;-72
2023/06/28 05:36:20;;;;;;;2.13;1.10;;;17.50;85.60;;;;;;5050486;28;20953;-72
2023/06/28 05:38:46;;;;;;;3.83;1.37;;;17.50;85.10;;;;;;5050605;28;20268;-72
2023/06/28 05:41:14;;;;;;;2.70;1.20;;;17.60;84.90;;;;;;5049998;28;20507;-73
2023/06/28 05:43:41;;;;;;;3.93;1.03;;;17.60;83.40;;;;;;5049294;28;20181;-73
2023/06/28 05:46:07;;;;;;;1.83;0.90;;;17.70;82.90;;;;;;5050699;28;20511;-72
2023/06/28 05:48:33;;;;;;;4.80;1.67;;;17.70;83.80;;;;;;5050216;28;21114;-72
2023/06/28 05:50:58;;;;;;;3.07;1.30;;;17.80;82.90;;;;;;5050006;28;20212;-72
2023/06/28 05:53:24;;;;;;;4.20;1.20;;;17.90;83.50;;;;;;5051309;28;20571;-72
2023/06/28 05:55:50;;;;;;;2.23;0.90;;;18.00;83.70;;;;;;5051692;28;20556;-73
2023/06/28 05:58:16;;;;;;;2.53;1.00;;;18.00;83.60;;;;;;5051138;28;20214;-72
2023/06/28 06:00:42;;;;;;;4.33;1.50;;;18.20;84.90;;;;;;5051030;28;20177;-72
2023/06/28 06:03:08;;;;;;;3.20;1.30;;;18.30;81.60;;;;;;5051009;28;20595;-73
2023/06/28 06:05:33;;;;;;;5.50;1.30;;;18.30;80.50;;;;;;5051200;28;20451;-73
2023/06/28 06:07:59;;;;;;;2.03;1.17;;;18.40;79.60;;;;;;5057958;28;20232;-72
2023/06/28 06:10:25;;;;;;;6.60;1.07;;;18.50;80.00;;;;;;5063047;28;20218;-72
2023/06/28 06:12:53;;;;;;;5.00;2.03;;;18.50;79.10;;;;;;5044879;28;20819;-72
2023/06/28 06:15:18;;;;;;;2.87;1.73;;;18.70;78.60;;;;;;5045358;28;20726;-73
2023/06/28 06:17:45;;;;;;;3.13;1.30;;;18.70;78.70;;;;;;5052051;28;20501;-72
2023/06/28 06:20:11;;;;;;;2.83;1.30;;;18.60;79.00;;;;;;5057858;28;20634;-71
2023/06/28 06:22:37;;;;;;;3.03;1.50;;;18.70;78.70;;;;;;5050103;28;20474;-72
2023/06/28 06:25:03;;;;;;;2.37;1.07;;;18.60;78.40;;;;;;5050242;28;20192;-71
2023/06/28 06:27:28;;;;;;;5.57;1.37;;;18.60;79.50;;;;;;5050152;28;20650;-71
2023/06/28 06:29:54;;;;;;;1.93;1.20;;;18.70;79.40;;;;;;5052424;28;20204;-72
2023/06/28 06:32:20;;;;;;;9.40;1.63;;;18.70;80.10;;;;;;5052215;28;20184;-72
2023/06/28 06:34:45;;;;;;;4.40;1.43;;;18.70;79.40;;;;;;5049549;28;20666;-72
2023/06/28 06:37:12;;;;;;;5.13;1.27;;;18.70;79.40;;;;;;5049879;28;20177;-71
2023/06/28 06:39:39;;;;;;;4.23;1.90;;;18.70;79.90;;;;;;5050299;28;20181;-72
2023/06/28 06:42:05;;;;;;;2.10;1.03;;;18.70;79.70;;;;;;5049602;28;20420;-71
2023/06/28 06:44:31;;;;;;;2.00;0.90;;;18.70;79.90;;;;;;5052014;28;20440;-72
2023/06/28 06:46:56;;;;;;;2.97;1.20;;;18.80;79.90;;;;;;5054052;28;20526;-71
2023/06/28 06:49:22;;;;;;;7.20;1.60;;;18.90;80.10;;;;;;5054153;28;20547;-72
2023/06/28 06:51:47;;;;;;;7.90;1.57;;;19.10;78.70;;;;;;5053173;28;20178;-72
2023/06/28 06:54:13;;;;;;;5.23;2.07;;;19.10;79.30;;;;;;5054457;28;20189;-72
2023/06/28 06:56:39;;;;;;;4.67;1.50;;;19.00;79.10;;;;;;5053916;28;20543;-71
2023/06/28 06:59:04;;;;;;;3.20;1.37;;;18.90;79.30;;;;;;5054449;28;20193;-71
2023/06/28 07:01:32;;;;;;;2.00;1.13;;;19.00;80.40;;;;;;5053589;28;20205;-71
2023/06/28 07:03:58;;;;;;;3.23;1.30;;;19.00;79.20;;;;;;5054834;28;20209;-71
2023/06/28 07:06:23;;;;;;;2.90;1.23;;;19.10;80.80;;;;;;5052746;28;20452;-72
2023/06/28 07:08:49;;;;;;;2.90;1.00;;;19.20;79.60;;;;;;5052826;28;20214;-72
2023/06/28 07:11:15;;;;;;;4.13;1.80;;;19.20;78.90;;;;;;5048695;28;20180;-71
2023/06/28 07:13:40;;;;;;;3.50;1.40;;;19.30;79.70;;;;;;5050583;28;20189;-72
2023/06/28 07:16:06;;;;;;;2.27;1.00;;;19.50;78.60;;;;;;5050509;28;20216;-73
2023/06/28 07:18:32;;;;;;;3.00;1.17;;;19.60;78.50;;;;;;5052172;28;20573;-70
2023/06/28 07:20:57;;;;;;;2.17;0.70;;;19.50;78.10;;;;;;5051260;28;20186;-70
2023/06/28 07:23:23;;;;;;;2.10;1.20;;;19.50;77.90;;;;;;5051339;28;20889;-70
2023/06/28 07:25:49;;;;;;;3.40;1.77;;;19.60;75.80;;;;;;5051289;28;20227;-69
2023/06/28 07:28:14;;;;;;;2.27;1.37;;;19.30;76.50;;;;;;5050531;28;20205;-69
2023/06/28 07:30:54;;;;;;;4.63;1.60;;;19.30;77.30;;;;;;5050323;28;21227;-69
2023/06/28 07:33:23;;;;;;;4.30;1.40;;;19.30;78.50;;;;;;5052253;28;20205;-69
2023/06/28 07:35:52;;;;;;;2.10;1.10;;;19.50;78.00;;;;;;5049853;28;20424;-70
2023/06/28 07:38:19;;;;;;;4.27;0.90;;;19.60;77.00;;;;;;5048920;28;20479;-69
2023/06/28 07:40:48;;;;;;;1.30;0.60;;;19.50;76.40;;;;;;5051217;28;20470;-69
2023/06/28 07:43:15;;;;;;;4.23;1.43;;;19.50;76.80;;;;;;5051311;28;20420;-69
2023/06/28 07:45:41;;;;;;;1.70;0.90;;;19.40;76.60;;;;;;5051601;28;20440;-69
2023/06/28 07:48:07;;;;;;;2.40;1.23;;;19.50;76.70;;;;;;5049643;28;20471;-70
2023/06/28 07:50:32;;;;;;;1.77;0.90;;;19.60;76.60;;;;;;5050275;28;20452;-70
2023/06/28 07:52:58;;;;;;;2.63;1.37;;;19.70;78.10;;;;;;5048469;28;20456;-70
2023/06/28 07:55:24;;;;;;;2.90;1.00;;;19.80;76.20;;;;;;5049519;28;20190;-70
2023/06/28 07:57:49;;;;;;;9.43;1.30;;;19.90;75.40;;;;;;5049001;28;20744;-70
2023/06/28 08:00:16;;;;;;;3.07;1.10;;;19.90;76.00;;;;;;5050176;28;20189;-70
2023/06/28 08:02:41;;;;;;;4.37;1.30;;;20.00;75.90;;;;;;5049545;28;20184;-70
2023/06/28 08:05:07;;;;;;;5.27;1.30;;;20.00;75.40;;;;;;5049575;28;20512;-70
2023/06/28 08:07:34;;;;;;;3.23;1.00;;;20.20;76.40;;;;;;5046888;28;20292;-70
2023/06/28 08:10:00;;;;;;;3.00;1.10;;;20.20;74.70;;;;;;5047995;28;20432;-70
2023/06/28 08:12:25;;;;;;;5.00;1.23;;;20.10;73.80;;;;;;5049391;28;20428;-70
2023/06/28 08:14:51;;;;;;;2.40;1.13;;;20.10;74.70;;;;;;5050199;28;20182;-70
2023/06/28 08:17:17;;;;;;;4.70;2.20;;;20.10;73.50;;;;;;5048638;28;20293;-70
2023/06/28 08:19:42;;;;;;;3.03;1.20;;;20.00;75.00;;;;;;5048961;28;20188;-70
2023/06/28 08:22:08;;;;;;;3.10;1.50;;;20.00;74.20;;;;;;5048578;28;20190;-70
2023/06/28 08:24:33;;;;;;;5.23;1.13;;;20.00;74.60;;;;;;5045328;28;20228;-70
2023/06/28 08:26:59;;;;;;;7.17;1.00;;;20.00;75.60;;;;;;5049870;28;20831;-70
2023/06/28 08:29:26;;;;;;;2.20;0.93;;;20.00;75.50;;;;;;5049813;28;20750;-70
2023/06/28 08:31:51;;;;;;;5.10;1.20;;;19.90;75.20;;;;;;5058644;28;20182;-69
2023/06/28 08:34:18;;;;;;;3.00;1.13;;;20.10;74.30;;;;;;5051570;28;20793;-70
2023/06/28 08:36:44;;;;;;;8.67;1.50;;;20.00;75.00;;;;;;5048650;28;20224;-70
2023/06/28 08:39:09;;;;;;;2.70;1.00;;;20.00;74.10;;;;;;5048743;28;20416;-70
2023/06/28 08:41:35;;;;;;;6.13;1.37;;;20.10;75.20;;;;;;5047926;28;20190;-70
2023/06/28 08:44:02;;;;;;;4.13;1.33;;;20.20;75.20;;;;;;5048087;28;20280;-70
2023/06/28 08:46:31;;;;;;;2.27;1.10;;;20.30;74.10;;;;;;5049170;28;20177;-70
2023/06/28 08:48:58;;;;;;;1.80;0.80;;;20.40;73.60;;;;;;5049379;28;20948;-70
2023/06/28 08:51:24;;;;;;;2.23;1.17;;;20.50;73.60;;;;;;5046247;28;20421;-70
2023/06/28 08:53:52;;;;;;;2.17;0.77;;;20.50;73.80;;;;;;5048283;28;20416;-70
2023/06/28 08:56:17;;;;;;;8.37;1.20;;;20.60;72.70;;;;;;5046724;28;20182;-70
2023/06/28 08:58:47;;;;;;;6.00;1.17;;;20.50;73.60;;;;;;5047314;28;20858;-70
2023/06/28 09:01:12;;;;;;;3.20;1.07;;;20.70;71.50;;;;;;5047490;28;20782;-70
2023/06/28 09:03:42;;;;;;;2.67;1.20;;;20.60;71.90;;;;;;5048802;28;20421;-70
2023/06/28 09:06:08;;;;;;;6.73;1.77;;;20.60;71.90;;;;;;5047149;28;20315;-70
2023/06/28 09:08:35;;;;;;;2.30;0.90;;;20.70;72.90;;;;;;5052047;28;20562;-70
2023/06/28 09:11:01;;;;;;;3.13;1.60;;;20.90;72.60;;;;;;5052351;28;20432;-70
2023/06/28 09:13:28;;;;;;;2.23;1.03;;;21.20;72.20;;;;;;5048337;28;20424;-70
2023/06/28 09:15:54;;;;;;;3.90;1.23;;;21.60;71.60;;;;;;5047889;28;20420;-70
2023/06/28 09:18:20;;;;;;;7.30;1.50;;;22.10;70.10;;;;;;5049041;28;20486;-70
2023/06/28 09:20:50;;;;;;;2.30;1.03;;;22.50;70.00;;;;;;5046692;28;20419;-70
2023/06/28 09:23:24;;;;;;;6.00;1.20;;;23.00;67.80;;;;;;5037089;28;20182;-70
2023/06/28 09:25:50;;;;;;;3.87;0.80;;;23.40;66.80;;;;;;5046644;28;20434;-70
2023/06/28 09:28:16;;;;;;;3.70;1.57;;;23.30;65.80;;;;;;5047968;28;20463;-70
2023/06/28 09:30:42;;;;;;;4.30;1.70;;;23.10;66.80;;;;;;5052125;28;20423;-70
2023/06/28 09:33:08;;;;;;;3.67;1.07;;;23.10;66.00;;;;;;5050754;28;20412;-69
2023/06/28 09:35:39;;;;;;;5.83;1.53;;;23.00;67.00;;;;;;5048495;28;20510;-70
2023/06/28 09:38:08;;;;;;;6.60;1.23;;;22.80;67.50;;;;;;5046754;28;20268;-69
2023/06/28 09:40:34;;;;;;;6.13;1.80;;;22.90;66.10;;;;;;5047806;28;20462;-70
2023/06/28 09:43:01;;;;;;;1.70;1.00;;;23.20;66.60;;;;;;5046194;28;20459;-70
2023/06/28 09:45:28;;;;;;;4.53;1.30;;;23.20;66.80;;;;;;5048120;28;20446;-70
2023/06/28 09:47:56;;;;;;;5.50;1.30;;;23.50;68.20;;;;;;5048205;28;20459;-70
2023/06/28 09:50:33;;;;;;;5.47;0.93;;;23.60;67.00;;;;;;5047974;28;20930;-70
2023/06/28 09:52:59;;;;;;;6.67;1.40;;;24.20;64.20;;;;;;5050401;28;20442;-70
2023/06/28 09:55:25;;;;;;;4.97;1.47;;;23.60;65.80;;;;;;5052136;28;20254;-70
2023/06/28 09:57:51;;;;;;;5.43;1.10;;;24.40;65.70;;;;;;5030063;28;20211;-70
2023/06/28 10:00:18;;;;;;;1.60;0.80;;;25.10;63.50;;;;;;5048055;28;20574;-70
2023/06/28 10:02:45;;;;;;;4.05;1.20;;;24.90;63.00;;;;;;5046472;28;20177;-70
2023/06/28 10:05:11;;;;;;;3.85;1.50;;;25.10;64.00;;;;;;5046930;28;20177;-70
2023/06/28 10:07:38;;;;;;;3.42;1.95;;;25.40;61.80;;;;;;5049907;28;20247;-70
2023/06/28 10:10:04;;;;;;;6.78;2.22;;;25.20;62.30;;;;;;5045001;28;20177;-70
2023/06/28 10:12:31;;;;;;;2.83;1.15;;;24.90;62.70;;;;;;5048561;28;20646;-70
2023/06/28 10:15:02;;;;;;;5.93;1.70;;;24.60;63.40;;;;;;5049212;28;20212;-70
2023/06/28 10:17:31;;;;;;;5.28;1.70;;;24.70;63.20;;;;;;5051800;28;20230;-70
2023/06/28 10:19:57;;;;;;;5.57;1.33;;;25.00;62.10;;;;;;5058274;28;20224;-70
2023/06/28 10:22:23;;;;;;;4.90;1.53;;;24.70;62.40;;;;;;5052631;28;20199;-70
2023/06/28 10:24:51;;;;;;;5.20;1.47;;;24.50;63.20;;;;;;5053503;28;20189;-70
2023/06/28 10:27:17;;;;;;;3.83;1.37;;;24.50;62.40;;;;;;5052913;28;20359;-69
2023/06/28 10:29:46;;;;;;;4.97;1.80;;;24.10;63.10;;;;;;5053107;28;20238;-67
2023/06/28 10:32:12;;;;;;;7.57;1.67;;;23.90;64.40;;;;;;5056514;28;20418;-66
2023/06/28 10:34:38;;;;;;;3.83;1.17;;;24.00;64.90;;;;;;5052662;28;20411;-67
2023/06/28 10:37:04;;;;;;;5.30;1.67;;;23.90;64.50;;;;;;5052715;28;20177;-67
2023/06/28 10:39:34;;;;;;;5.03;1.47;;;24.00;63.10;;;;;;5052210;28;20428;-67
2023/06/28 10:42:00;;;;;;;2.10;1.23;;;24.00;64.30;;;;;;5049448;28;20419;-67
2023/06/28 10:44:26;;;;;;;4.10;1.93;;;24.30;63.70;;;;;;5052488;28;20431;-67
2023/06/28 10:47:11;;;;;;;2.63;1.40;;;24.00;63.60;;;;;;5052959;28;20188;-67
2023/06/28 10:49:40;;;;;;;3.17;1.20;;;23.60;64.70;;;;;;5048995;28;20180;-66
2023/06/28 10:52:16;;;;;;;3.50;1.30;;;23.70;64.30;;;;;;5052366;28;20465;-67
2023/06/28 10:54:41;;;;;;;4.77;1.57;;;23.50;64.20;;;;;;5053012;28;20418;-66
2023/06/28 10:57:10;;;;;;;5.50;1.90;;;23.70;63.70;;;;;;5052629;28;20788;-66
2023/06/28 10:59:42;;;;;;;3.27;1.47;;;23.70;64.20;;;;;;5052595;28;20830;-66
2023/06/28 11:02:08;;;;;;;2.67;1.47;;;23.90;65.80;;;;;;5052398;28;20420;-66
2023/06/28 11:04:48;;;;;;;2.77;1.10;;;24.20;63.80;;;;;;5053016;28;20473;-67
2023/06/28 11:07:16;;;;;;;2.63;1.10;;;24.70;63.90;;;;;;5046890;28;20231;-67
2023/06/28 11:10:11;;;;;;;3.80;1.00;;;24.60;62.50;;;;;;5062632;28;20446;-66
2023/06/28 11:12:40;;;;;;;2.33;1.00;;;24.60;62.60;;;;;;5050827;28;20416;-67
2023/06/28 11:15:13;;;;;;;2.50;1.27;;;24.20;63.30;;;;;;5047292;28;20770;-69
2023/06/28 11:17:39;;;;;;;2.77;1.13;;;24.20;63.90;;;;;;5052873;28;20424;-66
2023/06/28 11:20:15;;;;;;;2.80;1.10;;;24.40;64.40;;;;;;5051877;28;20424;-66
2023/06/28 11:22:50;;;;;;;3.13;1.33;;;24.50;64.10;;;;;;5051009;28;20438;-69
2023/06/28 11:25:16;;;;;;;2.87;1.50;;;24.60;62.70;;;;;;5052957;28;20915;-66
2023/06/28 11:27:42;;;;;;;9.53;1.83;;;24.10;64.20;;;;;;5052860;28;20487;-66
2023/06/28 11:30:08;;;;;;;21.37;1.20;;;24.10;64.00;;;;;;5045561;28;20815;-67
2023/06/28 11:32:36;;;;;;;4.03;1.63;;;24.30;63.70;;;;;;5050305;28;20347;-68
2023/06/28 11:35:03;;;;;;;3.43;1.27;;;24.50;62.90;;;;;;5051627;28;20452;-68
2023/06/28 11:37:30;;;;;;;7.80;1.50;;;24.70;63.10;;;;;;5052765;28;20474;-68
2023/06/28 11:39:58;;;;;;;3.20;1.43;;;24.30;61.90;;;;;;5052313;28;20577;-68
2023/06/28 11:42:24;;;;;;;3.73;1.40;;;24.30;62.30;;;;;;5051872;28;20523;-68
2023/06/28 11:44:53;;;;;;;2.67;1.10;;;24.40;61.60;;;;;;5051587;28;20534;-68
2023/06/28 11:47:23;;;;;;;2.00;0.80;;;24.20;62.10;;;;;;5052516;28;20291;-68
2023/06/28 11:49:49;;;;;;;7.17;1.40;;;24.30;61.60;;;;;;5051795;28;20432;-68
2023/06/28 11:52:20;;;;;;;2.63;0.90;;;24.20;63.50;;;;;;5050806;28;20516;-68
2023/06/28 11:54:46;;;;;;;2.90;1.27;;;24.20;62.50;;;;;;5052156;28;20177;-68
2023/06/28 11:57:12;;;;;;;2.30;0.90;;;23.90;64.40;;;;;;5051765;28;20750;-68
2023/06/28 11:59:44;;;;;;;2.43;0.93;;;23.80;64.90;;;;;;5051913;28;20185;-68
2023/06/28 12:02:10;;;;;;;4.43;1.20;;;23.60;64.70;;;;;;5051059;28;20419;-68
2023/06/28 12:04:37;;;;;;;3.10;1.17;;;23.50;64.90;;;;;;5033685;28;20774;-68
2023/06/28 12:07:04;;;;;;;2.27;1.00;;;23.50;65.60;;;;;;5051363;28;20515;-68
2023/06/28 12:09:35;;;;;;;2.73;1.27;;;23.50;64.50;;;;;;5051921;28;20462;-67
2023/06/28 12:12:05;;;;;;;3.40;1.53;;;23.50;65.20;;;;;;5040792;28;20522;-68
2023/06/28 12:14:42;;;;;;;5.03;1.83;;;23.40;64.60;;;;;;5031823;28;20800;-69
2023/06/28 12:17:08;;;;;;;5.87;1.17;;;23.40;65.30;;;;;;5048847;28;20530;-68
2023/06/28 12:19:35;;;;;;;11.13;1.50;;;23.30;65.90;;;;;;5055294;28;20511;-68
2023/06/28 12:22:05;;;;;;;8.10;1.63;;;23.40;65.70;;;;;;5049385;28;20174;-68
2023/06/28 12:24:34;;;;;;;3.37;1.33;;;23.50;65.50;;;;;;5048818;28;20436;-68
2023/06/28 12:27:02;;;;;;;2.53;1.00;;;23.60;66.00;;;;;;5049094;28;21049;-68
2023/06/28 12:29:30;;;;;;;4.60;1.27;;;23.40;65.40;;;;;;5048133;28;20428;-68
2023/06/28 12:32:15;;;;;;;3.30;1.10;;;23.50;63.80;;;;;;5056398;28;20518;-68
2023/06/28 12:34:49;;;;;;;4.63;1.40;;;23.40;65.20;;;;;;5048452;28;20423;-68
2023/06/28 12:37:14;;;;;;;2.83;1.37;;;23.50;65.10;;;;;;5046615;28;20423;-68
2023/06/28 12:39:41;;;;;;;3.00;1.10;;;23.80;65.30;;;;;;5048216;28;20771;-68
2023/06/28 12:42:16;;;;;;;2.40;0.97;;;24.00;64.50;;;;;;5048048;28;20185;-68
2023/06/28 12:44:54;;;;;;;2.50;1.10;;;24.40;62.90;;;;;;5042120;28;20446;-68